createdAt,value
2023-05-09T00:01:14.127Z,29.4
2023-05-09T00:07:07.400Z,27.1
2023-05-09T00:13:00.028Z,29.6
2023-05-09T00:18:51.651Z,30
2023-05-09T00:24:44.669Z,33.6
2023-05-09T00:30:39.484Z,31.8
2023-05-09T00:36:32.389Z,34.1
2023-05-09T00:42:25.364Z,37.3
2023-05-09T00:48:17.970Z,37.6
2023-05-09T00:54:12.607Z,37.9
2023-05-09T01:00:04.204Z,37.6
2023-05-09T01:05:57.046Z,42.7
2023-05-09T01:11:48.595Z,41.8
2023-05-09T01:17:41.307Z,39.7
2023-05-09T01:23:33.956Z,42.6
2023-05-09T01:29:26.202Z,42.4
2023-05-09T01:35:20.686Z,43.9
2023-05-09T01:41:13.099Z,42.2
2023-05-09T01:47:09.740Z,44.1
2023-05-09T01:53:02.810Z,43.8
2023-05-09T01:58:54.446Z,40.4
2023-05-09T02:04:46.112Z,45.6
2023-05-09T02:10:39.099Z,43.3
2023-05-09T02:16:32.809Z,43.2
2023-05-09T02:22:24.671Z,40.6
2023-05-09T02:28:17.331Z,42.7
2023-05-09T02:34:10.021Z,41.8
2023-05-09T02:40:12.980Z,41.9
2023-05-09T02:46:05.077Z,41.5
2023-05-09T02:51:57.440Z,41.1
2023-05-09T02:58:05.569Z,43.1
2023-05-09T03:04:03.696Z,43.1
2023-05-09T03:09:59.922Z,40.6
2023-05-09T03:15:51.210Z,40.3
2023-05-09T03:21:43.816Z,41.1
2023-05-09T03:27:35.579Z,42.2
2023-05-09T03:33:28.709Z,43.3
2023-05-09T03:39:21.825Z,42.7
2023-05-09T03:45:14.759Z,41
2023-05-09T03:51:08.304Z,44.6
2023-05-09T03:56:59.718Z,43.5
2023-05-09T04:02:52.379Z,42.4
2023-05-09T04:08:53.376Z,41.4
2023-05-09T04:14:46.190Z,42.5
2023-05-09T04:20:40.753Z,43.9
2023-05-09T04:26:33.963Z,42.7
2023-05-09T04:32:26.173Z,42.6
2023-05-09T04:38:19.578Z,44.1
2023-05-09T04:44:15.548Z,41.4
2023-05-09T04:50:06.436Z,43.2
2023-05-09T04:56:00.137Z,44.4
2023-05-09T05:01:50.123Z,43.5
2023-05-09T05:07:42.773Z,45.4
2023-05-09T05:13:34.026Z,47.1
2023-05-09T05:19:26.449Z,45.7
2023-05-09T05:25:19.958Z,43.5
2023-05-09T05:31:10.464Z,42.7
2023-05-09T05:37:02.272Z,45.6
2023-05-09T05:42:55.730Z,43.8
2023-05-09T05:48:48.089Z,45.4
2023-05-09T05:54:39.726Z,44.4
2023-05-09T06:00:31.283Z,42.7
2023-05-09T06:06:22.846Z,44.1
2023-05-09T06:12:13.822Z,44.6
2023-05-09T06:18:06.045Z,42
2023-05-09T06:24:35.495Z,42.1
2023-05-09T06:30:33.781Z,39.2
2023-05-09T06:36:23.930Z,37.9
2023-05-09T06:42:16.904Z,35.6
2023-05-09T06:48:07.148Z,36
2023-05-09T06:53:59.064Z,32.2
2023-05-09T06:59:51.281Z,31.2
2023-05-09T07:05:45.075Z,29.6
2023-05-09T07:11:38.482Z,29.7
2023-05-09T07:17:32.022Z,32.6
2023-05-09T07:23:23.001Z,37.4
2023-05-09T07:29:13.913Z,29.7
2023-05-09T07:35:05.149Z,20.5
2023-05-09T07:40:57.015Z,20.3
2023-05-09T07:46:50.983Z,19.2
2023-05-09T07:52:44.161Z,18.5
2023-05-09T07:58:36.670Z,14.8
2023-05-09T08:04:29.344Z,15.8
2023-05-09T08:10:21.450Z,13.7
2023-05-09T08:16:13.641Z,13.2
2023-05-09T08:22:10.988Z,14.6
2023-05-09T08:28:03.723Z,13
2023-05-09T08:33:55.734Z,10
2023-05-09T08:39:47.964Z,5.8
2023-05-09T08:45:40.693Z,7.6
2023-05-09T08:51:33.892Z,4.3
2023-05-09T08:57:28.501Z,8
2023-05-09T09:03:20.500Z,5.1
2023-05-09T09:09:12.829Z,5
2023-05-09T09:15:07.177Z,6.5
2023-05-09T09:21:01.029Z,5.4
2023-05-09T09:26:52.625Z,6.9
2023-05-09T09:32:44.407Z,6.5
2023-05-09T09:39:46.092Z,6.4
2023-05-09T09:45:37.753Z,5.1
2023-05-09T09:51:30.801Z,6.4
2023-05-09T09:57:22.357Z,6.6
2023-05-09T10:03:14.468Z,5.5
2023-05-09T10:09:06.730Z,6
2023-05-09T10:14:58.789Z,5.5
2023-05-09T10:20:51.301Z,5.3
2023-05-09T10:26:43.088Z,4.9
2023-05-09T10:32:35.713Z,5.3
2023-05-09T10:38:29.615Z,3.3
2023-05-09T10:44:21.139Z,4.8
2023-05-09T10:50:13.377Z,4.7
2023-05-09T10:56:04.464Z,5
2023-05-09T11:01:57.499Z,9.6
2023-05-09T11:07:51.047Z,7.9
2023-05-09T11:13:43.949Z,5.6
2023-05-09T11:19:36.198Z,5.3
2023-05-09T11:25:27.741Z,5.5
2023-05-09T11:31:21.566Z,5.8
2023-05-09T11:37:14.591Z,7.6
2023-05-09T11:43:09.667Z,6.1
2023-05-09T11:52:16.580Z,7
2023-05-09T12:05:20.915Z,6.4
2023-05-09T12:11:12.844Z,14.5
2023-05-09T12:17:04.991Z,6.5
2023-05-09T12:22:57.031Z,7.6
2023-05-09T12:29:15.232Z,9.5
2023-05-09T12:35:25.981Z,7.4
2023-05-09T12:42:03.768Z,7.4
2023-05-09T12:47:54.906Z,6.9
2023-05-09T12:53:49.049Z,5.5
2023-05-09T12:59:42.743Z,4
2023-05-09T13:05:35.315Z,4.4
2023-05-09T13:11:29.565Z,2.7
2023-05-09T13:17:21.452Z,4
2023-05-09T13:23:13.648Z,3.1
2023-05-09T13:29:05.799Z,4.5
2023-05-09T13:34:58.554Z,3.4
2023-05-09T13:40:51.316Z,3.9
2023-05-09T13:46:47.767Z,16.6
2023-05-09T13:52:39.139Z,5.5
2023-05-09T13:58:32.139Z,8.6
2023-05-09T14:04:24.275Z,6.3
2023-05-09T14:10:18.846Z,8.5
2023-05-09T14:16:11.404Z,5.1
2023-05-09T14:22:04.238Z,6.3
2023-05-09T14:27:58.336Z,5.8
2023-05-09T14:33:49.761Z,10.4
2023-05-09T14:39:44.021Z,8.9
2023-05-09T14:45:35.956Z,6.5
2023-05-09T14:51:28.101Z,7.4
2023-05-09T14:57:21.995Z,7.9
2023-05-09T15:03:13.289Z,6.8
2023-05-09T15:09:06.734Z,7.6
2023-05-09T15:14:57.828Z,4.4
2023-05-09T15:20:49.097Z,7.6
2023-05-09T15:26:41.658Z,8.8
2023-05-09T15:32:34.113Z,9.8
2023-05-09T15:38:25.856Z,7.5
2023-05-09T15:44:18.763Z,7.3
2023-05-09T15:50:10.170Z,11.2
2023-05-09T15:56:03.269Z,5.8
2023-05-09T16:01:57.755Z,7.5
2023-05-09T16:07:51.558Z,11.7
2023-05-09T16:13:43.609Z,5.4
2023-05-09T16:19:39.246Z,6.1
2023-05-09T16:25:32.286Z,7.8
2023-05-09T16:31:26.671Z,8.8
2023-05-09T16:37:18.569Z,7.7
2023-05-09T16:43:09.521Z,8.7
2023-05-09T16:49:01.988Z,8.8
2023-05-09T16:54:54.265Z,8.3
2023-05-09T17:00:48.227Z,6.7
2023-05-09T17:06:40.577Z,6.7
2023-05-09T17:12:33.089Z,8.2
2023-05-09T17:18:42.946Z,7.9
2023-05-09T17:24:35.148Z,8.5
2023-05-09T17:30:32.748Z,8.1
2023-05-09T17:36:32.951Z,11.1
2023-05-09T17:42:25.171Z,9.2
2023-05-09T17:48:21.769Z,9.8
2023-05-09T17:54:14.298Z,9.2
2023-05-09T18:00:05.648Z,10.5
2023-05-09T18:05:57.360Z,9.1
2023-05-09T18:11:53.444Z,11.2
2023-05-09T18:18:05.517Z,11.7
2023-05-09T18:23:56.852Z,12.1
2023-05-09T18:29:49.380Z,11.5
2023-05-09T18:35:41.898Z,11.4
2023-05-09T18:41:34.355Z,11
2023-05-09T18:47:27.034Z,11.3
2023-05-09T18:53:20.429Z,10.3
2023-05-09T18:59:13.044Z,5.9
2023-05-09T19:05:06.192Z,9.8
2023-05-09T19:11:01.424Z,9.8
2023-05-09T19:16:56.797Z,9
2023-05-09T19:22:48.928Z,7.7
2023-05-09T19:28:41.404Z,8.1
2023-05-09T19:35:43.390Z,4.8
2023-05-09T19:43:56.825Z,5.2
2023-05-09T19:49:46.215Z,3
2023-05-09T19:55:42.287Z,2.4
2023-05-09T20:01:35.948Z,3.2
2023-05-09T20:07:27.014Z,2.8
2023-05-09T20:13:24.049Z,3.6
2023-05-09T20:19:20.077Z,3.1
2023-05-09T20:27:32.549Z,1.9
2023-05-09T20:33:23.477Z,3.5
2023-05-09T20:39:22.140Z,3.6
2023-05-09T20:45:20.362Z,4.8
2023-05-09T20:51:13.182Z,0.9
2023-05-09T20:57:04.164Z,3.9
2023-05-09T21:02:58.404Z,2.5
2023-05-09T21:08:50.602Z,3.7
2023-05-09T21:14:41.617Z,2
2023-05-09T21:20:32.895Z,1.7
2023-05-09T21:26:25.992Z,1.2
2023-05-09T21:32:18.031Z,1.6
2023-05-09T21:38:10.443Z,0.8
2023-05-09T21:44:01.459Z,2.5
2023-05-09T21:49:58.553Z,1.6
2023-05-09T21:55:51.062Z,3.2
2023-05-09T22:01:45.660Z,1.1
2023-05-09T22:07:39.143Z,0.9
2023-05-09T22:13:29.524Z,1.8
2023-05-09T22:19:24.526Z,1.2
2023-05-09T22:25:15.032Z,2
2023-05-09T22:31:06.628Z,2.5
2023-05-09T22:36:56.885Z,1.9
2023-05-09T22:42:53.874Z,1.7
2023-05-09T22:48:45.019Z,1.8
2023-05-09T22:54:39.419Z,2.5
2023-05-09T23:00:34.325Z,1.4
2023-05-09T23:06:26.486Z,1.8
2023-05-09T23:12:17.136Z,1.7
2023-05-09T23:18:09.289Z,1.6
2023-05-09T23:24:01.350Z,3
2023-05-09T23:29:53.841Z,1.7
2023-05-09T23:35:46.044Z,2.4
2023-05-09T23:41:38.195Z,1.1
2023-05-09T23:47:30.967Z,1.4
2023-05-09T23:53:23.209Z,0.5
2023-05-09T23:59:15.361Z,1.7
